Garrison, Maryland
Current Conditions -  °F | °C
As of 11:18 AM on Wednesday 22 Oct 2014 (Local Time) from KBWI Reporting Station
Light Rain Light Rain  
Wind Chill: 54°   Ceiling: 2200
Heat Index: 54°   Visibility: 6mi
Dew Point: 52°   Wind: 12mph
Humidity: 94%   Direction: 340°NNW
Pressure: 29.91"   Gusts: NA
Location:  39.41°N, 76.76°W
Report Text: KBWI 221518Z 34010KT 6SM -RA BR SCT014 BKN022 OVC028 12/11 A2991 RMK AO2 P0001
Loading
Personal Weather Stations






























Interactive Weather Map New forecast layout! Learn more

10-Day Weather Forecast

Advertisements
Track Severe Weather on mobile